Time;durP1;ratioP1;P1;durP2;ratioP2;P2;SDS_P1;SDS_P2;PMS_P1;PMS_P2;Temp;Humidity;BMP_temperature;BMP_pressure;BME280_temperature;BME280_humidity;BME280_pressure;Samples;Min_cycle;Max_cycle;Signal;HPM_P1;HPM_P2
2023/08/15 00:02:00;;;;;;;13.10;8.20;;;;;;;;;;4921000;29;20130;-74
2023/08/15 00:04:28;;;;;;;13.00;7.75;;;21.30;99.90;;;;;;4937804;29;20043;-74
2023/08/15 00:06:54;;;;;;;10.13;7.28;;;21.20;99.90;;;;;;4937278;29;20063;-74
2023/08/15 00:09:23;;;;;;;13.43;8.20;;;21.10;99.90;;;;;;4905281;29;20054;-74
2023/08/15 00:11:49;;;;;;;11.18;8.00;;;21.00;99.90;;;;;;4905158;29;20083;-75
2023/08/15 00:14:15;;;;;;;13.55;8.18;;;;;;;;;;4905022;29;20515;-74
2023/08/15 00:16:44;;;;;;;13.07;8.27;;;21.00;99.90;;;;;;4904860;29;20504;-74
2023/08/15 00:19:10;;;;;;;10.38;7.30;;;21.30;99.90;;;;;;4920793;29;20051;-74
2023/08/15 00:21:38;;;;;;;14.68;8.25;;;21.50;99.90;;;;;;4920352;29;20043;-74
2023/08/15 00:24:04;;;;;;;13.30;8.35;;;21.40;99.90;;;;;;4904571;29;20036;-74
2023/08/15 00:26:30;;;;;;;10.95;7.70;;;21.60;99.90;;;;;;4937909;29;20094;-74
2023/08/15 00:28:58;;;;;;;14.07;8.50;;;21.30;99.90;;;;;;4920745;29;20461;-74
2023/08/15 00:31:24;;;;;;;11.82;7.70;;;21.10;99.90;;;;;;4942160;23;20095;-67
2023/08/15 00:33:49;;;;;;;10.57;7.90;;;21.40;99.90;;;;;;4935605;29;20051;-67
2023/08/15 00:36:15;;;;;;;11.60;8.50;;;21.20;99.90;;;;;;4920570;29;20493;-67
2023/08/15 00:38:41;;;;;;;12.38;8.30;;;22.50;99.90;;;;;;4920560;29;20036;-68
2023/08/15 00:41:07;;;;;;;10.18;7.80;;;22.10;99.90;;;;;;4919655;29;20122;-68
2023/08/15 00:43:32;;;;;;;17.02;7.72;;;21.20;99.90;;;;;;4919635;29;20126;-67
2023/08/15 00:46:01;;;;;;;16.55;8.60;;;21.40;99.90;;;;;;4920014;29;20052;-68
2023/08/15 00:48:29;;;;;;;10.07;8.60;;;21.20;99.90;;;;;;4920054;29;20480;-68
2023/08/15 00:50:58;;;;;;;11.40;8.02;;;21.30;99.90;;;;;;4919517;29;20048;-68
2023/08/15 00:53:25;;;;;;;14.00;9.18;;;21.30;99.90;;;;;;4919581;29;20043;-67
2023/08/15 00:55:53;;;;;;;11.45;8.65;;;21.40;99.90;;;;;;4919406;29;20040;-67
2023/08/15 00:58:19;;;;;;;12.45;7.95;;;21.10;99.90;;;;;;4919396;29;20044;-68
2023/08/15 01:00:45;;;;;;;14.07;8.20;;;21.40;99.90;;;;;;4919153;29;20043;-68
2023/08/15 01:03:12;;;;;;;12.02;8.52;;;21.30;99.90;;;;;;4936509;29;20035;-67
2023/08/15 01:05:39;;;;;;;12.95;7.93;;;21.30;99.90;;;;;;4936298;29;20039;-68
2023/08/15 01:08:05;;;;;;;9.57;7.40;;;21.30;99.90;;;;;;4919285;29;20044;-68
2023/08/15 01:10:31;;;;;;;13.27;8.23;;;21.20;99.90;;;;;;4919113;29;20669;-68
2023/08/15 01:13:14;;;;;;;12.93;8.48;;;21.10;99.90;;;;;;4919048;29;20042;-68
2023/08/15 01:15:46;;;;;;;12.68;7.13;;;21.70;99.90;;;;;;4936003;29;20122;-68
2023/08/15 01:18:20;;;;;;;11.55;7.18;;;21.20;99.90;;;;;;4936343;29;20047;-67
2023/08/15 01:20:47;;;;;;;12.35;7.65;;;21.30;99.90;;;;;;4918963;29;20050;-68
2023/08/15 01:23:15;;;;;;;11.52;7.75;;;21.00;99.90;;;;;;4918714;29;20411;-68
2023/08/15 01:25:42;;;;;;;12.20;6.70;;;21.10;99.90;;;;;;4936013;29;20516;-68
2023/08/15 01:28:13;;;;;;;12.23;7.50;;;21.10;99.90;;;;;;4935929;29;20043;-67
2023/08/15 01:30:54;;;;;;;8.45;6.03;;;21.00;99.90;;;;;;4918794;29;20039;-68
2023/08/15 01:33:34;;;;;;;14.10;7.78;;;21.00;99.90;;;;;;4918935;29;20488;-68
2023/08/15 01:36:09;;;;;;;16.00;7.43;;;20.80;99.90;;;;;;4918599;29;20051;-68
2023/08/15 01:38:45;;;;;;;9.55;6.40;;;21.20;99.90;;;;;;4918601;29;20051;-68
2023/08/15 01:41:18;;;;;;;11.73;6.40;;;20.80;99.90;;;;;;4918549;29;20151;-67
2023/08/15 01:43:44;;;;;;;10.52;7.97;;;20.80;99.90;;;;;;4918483;29;20578;-67
2023/08/15 01:46:11;;;;;;;9.70;6.82;;;20.70;99.90;;;;;;4918504;29;20035;-67
2023/08/15 01:48:41;;;;;;;13.20;7.35;;;20.80;99.90;;;;;;4918650;29;20059;-67
2023/08/15 01:51:07;;;;;;;11.88;6.65;;;20.80;99.90;;;;;;4918063;29;20130;-68
2023/08/15 01:53:37;;;;;;;9.50;7.10;;;21.00;99.90;;;;;;4917786;29;20044;-69
2023/08/15 01:56:03;;;;;;;13.63;7.70;;;20.90;99.90;;;;;;4935533;29;20389;-67
2023/08/15 01:58:29;;;;;;;15.95;7.60;;;20.80;99.90;;;;;;4918207;29;20058;-68
2023/08/15 02:00:54;;;;;;;14.60;8.32;;;20.70;99.90;;;;;;4935275;29;20118;-68
2023/08/15 02:03:20;;;;;;;11.90;7.35;;;20.60;99.90;;;;;;4917931;29;20036;-67
2023/08/15 02:05:45;;;;;;;12.48;7.50;;;20.90;99.90;;;;;;4918070;29;20046;-68
2023/08/15 02:08:11;;;;;;;12.63;7.40;;;20.80;99.90;;;;;;4918257;29;20101;-68
2023/08/15 02:10:37;;;;;;;11.73;7.53;;;20.70;99.90;;;;;;4918014;29;20048;-68
2023/08/15 02:13:02;;;;;;;14.38;6.43;;;20.90;99.90;;;;;;4917836;29;20094;-67
2023/08/15 02:15:28;;;;;;;11.05;7.20;;;20.80;99.90;;;;;;4935142;29;20105;-67
2023/08/15 02:17:54;;;;;;;9.93;7.20;;;21.00;99.90;;;;;;4935087;29;20562;-68
2023/08/15 02:20:19;;;;;;;14.95;7.10;;;21.10;99.90;;;;;;4917699;29;20035;-68
2023/08/15 02:22:45;;;;;;;9.98;6.88;;;21.40;99.90;;;;;;4934748;29;20111;-68
2023/08/15 02:25:10;;;;;;;9.63;6.55;;;20.70;99.90;;;;;;4917858;29;20071;-67
2023/08/15 02:27:36;;;;;;;11.15;6.70;;;20.80;99.90;;;;;;4918085;29;20412;-68
2023/08/15 02:30:03;;;;;;;11.98;6.90;;;21.10;99.90;;;;;;4917615;29;20036;-67
2023/08/15 02:32:28;;;;;;;9.40;6.00;;;21.00;99.90;;;;;;4917600;29;20134;-67
2023/08/15 02:34:54;;;;;;;8.48;6.43;;;20.90;99.90;;;;;;4934734;29;20132;-67
2023/08/15 02:37:20;;;;;;;9.82;6.20;;;20.70;99.90;;;;;;4917790;29;20130;-68
2023/08/15 02:39:45;;;;;;;9.77;6.78;;;20.60;99.90;;;;;;4917826;29;20522;-68
2023/08/15 02:42:11;;;;;;;12.18;6.45;;;20.70;99.90;;;;;;4934901;29;20036;-68
2023/08/15 02:44:36;;;;;;;9.98;6.55;;;21.00;99.90;;;;;;4934507;29;20456;-68
2023/08/15 02:47:02;;;;;;;11.48;7.22;;;20.50;99.90;;;;;;4934720;29;20085;-67
2023/08/15 02:49:28;;;;;;;9.85;5.82;;;20.40;99.90;;;;;;4917454;29;20083;-68
2023/08/15 02:51:53;;;;;;;12.00;7.00;;;20.40;99.90;;;;;;4934444;29;20126;-68
2023/08/15 02:54:19;;;;;;;10.75;6.45;;;20.60;99.90;;;;;;4917231;29;20043;-67
2023/08/15 02:56:44;;;;;;;11.82;6.50;;;20.50;99.90;;;;;;4917522;29;20043;-67
2023/08/15 02:59:10;;;;;;;12.73;7.10;;;20.30;99.90;;;;;;4934446;29;20042;-68
2023/08/15 03:01:36;;;;;;;16.35;6.80;;;20.40;99.90;;;;;;4917369;29;20040;-68
2023/08/15 03:04:01;;;;;;;12.88;6.55;;;20.90;99.90;;;;;;4916197;29;20393;-68
2023/08/15 03:06:27;;;;;;;12.13;6.57;;;20.30;99.90;;;;;;4934889;29;20070;-68
2023/08/15 03:08:52;;;;;;;10.05;6.90;;;20.60;99.90;;;;;;4934438;29;20047;-68
2023/08/15 03:11:18;;;;;;;9.85;6.85;;;20.70;99.90;;;;;;4917663;29;20399;-67
2023/08/15 03:13:44;;;;;;;10.45;6.40;;;20.50;99.90;;;;;;4918041;29;20504;-68
2023/08/15 03:16:09;;;;;;;12.35;7.72;;;20.50;99.90;;;;;;4917841;29;20039;-68
2023/08/15 03:18:35;;;;;;;9.98;6.85;;;20.50;99.90;;;;;;4918153;29;20040;-67
2023/08/15 03:21:03;;;;;;;10.10;7.30;;;20.70;99.90;;;;;;4917100;29;20086;-67
2023/08/15 03:23:29;;;;;;;10.35;7.45;;;20.60;99.90;;;;;;4917300;29;20404;-68
2023/08/15 03:25:56;;;;;;;10.25;7.70;;;20.60;99.90;;;;;;4917201;29;20050;-67
2023/08/15 03:28:21;;;;;;;13.75;8.13;;;19.80;99.90;;;;;;4917111;29;20083;-68
2023/08/15 03:30:47;;;;;;;18.42;8.82;;;20.60;99.90;;;;;;4916891;29;20475;-67
2023/08/15 03:33:13;;;;;;;14.38;8.80;;;20.50;99.90;;;;;;4917364;29;20110;-67
2023/08/15 03:35:46;;;;;;;12.73;8.20;;;20.70;99.90;;;;;;4917193;29;20048;-67
2023/08/15 03:38:19;;;;;;;;;;;20.50;99.90;;;;;;4917852;29;20032;-68
2023/08/15 03:40:46;;;;;;;11.82;7.70;;;20.80;99.90;;;;;;4917244;29;20017;-67
2023/08/15 03:43:13;;;;;;;10.98;7.57;;;20.70;99.90;;;;;;4916807;29;20130;-67
2023/08/15 03:45:42;;;;;;;15.93;8.10;;;21.00;99.90;;;;;;4916978;29;20189;-68
2023/08/15 03:48:09;;;;;;;13.05;8.13;;;20.90;99.90;;;;;;4901155;29;20043;-68
2023/08/15 03:50:35;;;;;;;12.00;8.40;;;20.80;99.90;;;;;;4916823;29;20496;-67
2023/08/15 03:53:01;;;;;;;10.55;7.47;;;20.60;99.90;;;;;;4916742;29;20095;-68
2023/08/15 03:55:29;;;;;;;13.57;8.23;;;20.70;99.90;;;;;;4917203;29;20404;-67
2023/08/15 03:57:55;;;;;;;12.93;7.57;;;20.90;99.90;;;;;;4917025;29;20040;-67
2023/08/15 04:00:20;;;;;;;18.02;8.70;;;20.60;99.90;;;;;;4933972;29;20133;-67
2023/08/15 04:02:46;;;;;;;12.52;8.52;;;21.30;99.90;;;;;;4916943;29;20144;-68
2023/08/15 04:05:12;;;;;;;12.95;8.18;;;21.10;99.90;;;;;;4934029;29;20035;-68
2023/08/15 04:07:39;;;;;;;13.68;8.52;;;20.90;99.90;;;;;;4916922;29;20047;-67
2023/08/15 04:10:05;;;;;;;13.32;8.52;;;20.90;99.90;;;;;;4916750;29;20043;-67
2023/08/15 04:12:33;;;;;;;17.70;9.05;;;20.50;99.90;;;;;;4933918;29;20098;-68
2023/08/15 04:14:59;;;;;;;13.75;8.65;;;20.60;99.90;;;;;;4934488;29;20135;-67
2023/08/15 04:17:25;;;;;;;14.10;9.18;;;20.90;99.90;;;;;;4920118;29;20106;-67
2023/08/15 04:19:51;;;;;;;12.57;8.73;;;20.70;99.90;;;;;;4920177;29;20484;-68
2023/08/15 04:22:17;;;;;;;16.13;9.85;;;20.60;99.90;;;;;;4920088;29;20151;-68
2023/08/15 04:24:42;;;;;;;13.73;9.10;;;21.00;99.90;;;;;;4919981;29;20523;-68
2023/08/15 04:27:08;;;;;;;15.40;9.63;;;20.80;99.90;;;;;;4937109;29;20074;-67
2023/08/15 04:29:33;;;;;;;12.85;9.15;;;20.90;99.90;;;;;;4919837;29;20047;-68
2023/08/15 04:31:59;;;;;;;12.23;8.63;;;20.40;99.90;;;;;;4936739;29;20039;-68
2023/08/15 04:34:25;;;;;;;15.35;9.05;;;20.50;99.90;;;;;;4919551;29;20039;-68
2023/08/15 04:36:50;;;;;;;17.90;8.13;;;20.70;99.90;;;;;;4919738;29;20071;-67
2023/08/15 04:39:18;;;;;;;9.82;7.35;;;21.80;99.90;;;;;;4919903;29;20123;-68
2023/08/15 04:41:44;;;;;;;14.73;8.02;;;20.60;99.90;;;;;;4920014;29;20044;-68
2023/08/15 04:44:12;;;;;;;11.05;7.82;;;20.70;99.90;;;;;;4919564;29;20570;-68
2023/08/15 04:46:38;;;;;;;14.18;8.35;;;21.00;99.90;;;;;;4920063;29;20316;-67
2023/08/15 04:49:04;;;;;;;11.93;7.40;;;21.40;99.90;;;;;;4936760;29;20028;-67
2023/08/15 04:51:29;;;;;;;14.73;8.77;;;20.80;99.90;;;;;;4919722;29;20047;-67
2023/08/15 04:53:55;;;;;;;11.80;7.88;;;20.80;99.90;;;;;;4936722;29;20047;-67
2023/08/15 04:56:21;;;;;;;14.75;8.85;;;20.60;99.90;;;;;;4936763;29;20095;-68
2023/08/15 04:58:47;;;;;;;10.63;7.00;;;20.60;99.90;;;;;;4919259;29;20122;-68
2023/08/15 05:01:13;;;;;;;16.05;7.20;;;20.70;99.90;;;;;;4919309;29;20139;-68
2023/08/15 05:03:39;;;;;;;11.65;7.47;;;21.10;99.90;;;;;;4919268;29;20130;-67
2023/08/15 05:06:04;;;;;;;11.38;7.38;;;20.50;99.90;;;;;;4936368;29;20039;-67
2023/08/15 05:08:30;;;;;;;10.63;6.93;;;20.70;99.90;;;;;;4936280;29;20039;-67
2023/08/15 05:10:56;;;;;;;13.75;7.15;;;20.60;99.90;;;;;;4936136;29;20075;-68
2023/08/15 05:13:21;;;;;;;9.40;5.43;;;20.50;99.90;;;;;;4919074;29;20079;-67
2023/08/15 05:15:47;;;;;;;12.77;6.57;;;20.50;99.90;;;;;;4918988;29;20554;-67
2023/08/15 05:18:14;;;;;;;8.40;4.65;;;20.60;99.90;;;;;;4919130;29;20035;-68
2023/08/15 05:20:39;;;;;;;8.85;4.60;;;20.60;99.90;;;;;;4935912;29;20079;-67
2023/08/15 05:23:05;;;;;;;8.32;5.43;;;20.30;99.90;;;;;;4903034;29;20067;-67
2023/08/15 05:25:31;;;;;;;10.65;5.57;;;20.60;99.90;;;;;;4935984;29;20444;-67
2023/08/15 05:27:56;;;;;;;10.45;5.47;;;20.50;99.90;;;;;;4917950;29;20032;-67
2023/08/15 05:30:22;;;;;;;12.35;5.57;;;20.50;99.90;;;;;;4935617;29;20047;-68
2023/08/15 05:32:48;;;;;;;10.85;6.03;;;20.20;99.90;;;;;;4918959;29;20432;-68
2023/08/15 05:35:13;;;;;;;10.07;6.05;;;20.60;99.90;;;;;;4935834;29;20039;-67
2023/08/15 05:37:39;;;;;;;12.38;7.03;;;20.20;99.90;;;;;;4918731;29;20106;-68
2023/08/15 05:40:05;;;;;;;10.02;6.35;;;20.50;99.90;;;;;;4918538;29;20089;-68
2023/08/15 05:42:31;;;;;;;13.25;6.43;;;20.70;99.90;;;;;;4918458;29;20035;-67
2023/08/15 05:44:57;;;;;;;11.77;5.28;;;20.30;99.90;;;;;;4918740;29;20400;-68
2023/08/15 05:47:22;;;;;;;12.80;6.03;;;20.80;99.90;;;;;;4918593;29;20047;-68
2023/08/15 05:49:48;;;;;;;10.65;5.65;;;20.30;99.90;;;;;;4918611;29;20186;-67
2023/08/15 05:52:13;;;;;;;9.07;4.90;;;20.50;99.90;;;;;;4918433;29;20131;-67
2023/08/15 05:54:39;;;;;;;11.05;5.20;;;20.50;99.90;;;;;;4935243;29;20043;-68
2023/08/15 05:57:05;;;;;;;12.15;7.03;;;20.30;99.90;;;;;;4918190;29;20040;-67
2023/08/15 05:59:30;;;;;;;9.20;4.20;;;20.70;99.90;;;;;;4918200;29;20044;-68
2023/08/15 06:01:56;;;;;;;11.45;5.15;;;20.80;99.90;;;;;;4918457;29;20051;-68
2023/08/15 06:04:21;;;;;;;9.18;4.47;;;21.00;99.90;;;;;;4935187;29;20047;-68
2023/08/15 06:06:50;;;;;;;9.40;3.92;;;21.00;99.90;;;;;;4935288;29;20458;-68
2023/08/15 06:09:16;;;;;;;11.50;4.75;;;20.90;99.90;;;;;;4918161;29;20082;-67
2023/08/15 06:11:41;;;;;;;9.48;3.67;;;20.90;99.90;;;;;;4917963;29;20079;-67
2023/08/15 06:14:07;;;;;;;10.95;3.97;;;20.80;99.90;;;;;;4917735;29;20114;-68
2023/08/15 06:16:33;;;;;;;8.70;4.47;;;21.30;99.90;;;;;;4935155;29;20046;-67
2023/08/15 06:18:58;;;;;;;8.68;4.13;;;20.90;99.90;;;;;;4917934;29;20040;-68
2023/08/15 06:21:24;;;;;;;10.80;3.85;;;21.40;99.90;;;;;;4902162;29;20066;-68
2023/08/15 06:23:49;;;;;;;12.50;4.03;;;21.30;99.90;;;;;;4934746;29;20393;-67
2023/08/15 06:26:15;;;;;;;11.70;4.15;;;21.60;99.90;;;;;;4934830;29;20504;-67
2023/08/15 06:28:41;;;;;;;9.23;3.67;;;21.40;99.90;;;;;;4917722;29;20082;-67
2023/08/15 06:31:07;;;;;;;9.02;4.50;;;;;;;;;;4963219;23;20162;-74
2023/08/15 06:33:33;;;;;;;16.52;4.80;;;21.30;99.90;;;;;;4918231;29;20384;-74
2023/08/15 06:36:02;;;;;;;11.05;4.47;;;21.60;99.90;;;;;;4934177;29;20043;-74
2023/08/15 06:38:27;;;;;;;10.52;3.85;;;21.70;99.90;;;;;;4902664;29;20105;-74
2023/08/15 06:40:58;;;;;;;12.50;4.90;;;;;;;;;;4934185;29;20134;-74
2023/08/15 06:43:24;;;;;;;9.95;4.20;;;21.60;99.90;;;;;;4918253;29;20050;-74
2023/08/15 06:45:52;;;;;;;14.35;4.55;;;21.20;99.90;;;;;;4918818;29;20524;-75
2023/08/15 06:48:18;;;;;;;13.93;4.78;;;21.90;99.90;;;;;;4935297;29;20044;-75
2023/08/15 06:50:44;;;;;;;12.60;4.30;;;22.10;99.90;;;;;;4934907;29;20043;-74
2023/08/15 06:53:12;;;;;;;13.73;4.90;;;22.30;99.90;;;;;;4934453;29;20522;-74
2023/08/15 06:55:38;;;;;;;12.23;4.43;;;22.00;99.90;;;;;;4917876;29;20044;-74
2023/08/15 06:58:05;;;;;;;8.13;4.00;;;22.00;99.90;;;;;;4917905;29;20412;-75
2023/08/15 07:00:31;;;;;;;13.38;4.55;;;22.40;99.90;;;;;;4918529;29;20407;-75
2023/08/15 07:02:57;;;;;;;12.48;4.50;;;;;;;;;;4902508;29;20040;-74
2023/08/15 07:05:23;;;;;;;15.00;4.18;;;22.20;99.90;;;;;;4935016;29;20095;-74
2023/08/15 07:07:49;;;;;;;13.98;5.07;;;;;;;;;;4918028;29;20056;-74
2023/08/15 07:10:15;;;;;;;10.38;4.05;;;22.30;99.90;;;;;;4918303;29;20044;-74
2023/08/15 07:12:41;;;;;;;8.95;3.90;;;;;;;;;;4918065;29;20059;-74
2023/08/15 07:15:07;;;;;;;13.57;4.13;;;22.10;99.90;;;;;;4935182;29;20051;-75
2023/08/15 07:17:33;;;;;;;13.48;4.10;;;22.00;99.90;;;;;;4934754;29;20105;-74
2023/08/15 07:19:59;;;;;;;12.00;4.25;;;;;;;;;;4935085;29;20035;-74
2023/08/15 07:22:25;;;;;;;13.27;3.67;;;22.60;99.90;;;;;;4917898;29;20047;-75
2023/08/15 07:24:51;;;;;;;11.27;4.00;;;;;;;;;;4935342;29;20044;-75
2023/08/15 07:27:20;;;;;;;10.70;3.90;;;23.00;99.90;;;;;;4917804;29;20412;-74
2023/08/15 07:29:46;;;;;;;14.05;3.78;;;23.20;99.90;;;;;;4918165;29;20047;-75
2023/08/15 07:32:12;;;;;;;10.68;3.38;;;;;;;;;;4918388;29;20052;-75
2023/08/15 07:34:38;;;;;;;12.52;3.20;;;23.10;99.90;;;;;;4934205;29;20130;-74
2023/08/15 07:37:04;;;;;;;14.60;3.45;;;23.10;99.90;;;;;;4917649;29;20402;-74
2023/08/15 07:39:31;;;;;;;9.70;2.95;;;;;;;;;;4935181;29;20099;-75
2023/08/15 07:41:56;;;;;;;11.50;3.55;;;23.40;99.90;;;;;;4918232;29;20052;-74
2023/08/15 07:44:25;;;;;;;12.57;3.80;;;;;;;;;;4917713;29;20564;-75
2023/08/15 07:46:51;;;;;;;6.40;2.83;;;23.40;99.90;;;;;;4934897;29;20126;-76
2023/08/15 07:49:17;;;;;;;13.90;3.03;;;24.00;99.90;;;;;;4934935;29;20083;-75
2023/08/15 07:51:42;;;;;;;10.13;3.67;;;23.60;99.90;;;;;;4938093;29;20071;-75
2023/08/15 07:54:08;;;;;;;11.50;3.33;;;23.50;99.90;;;;;;4921473;29;20095;-74
2023/08/15 07:56:34;;;;;;;7.40;2.88;;;23.90;99.90;;;;;;4938367;29;20131;-75
2023/08/15 07:59:00;;;;;;;8.75;3.38;;;23.30;99.90;;;;;;4921281;29;20043;-75
2023/08/15 08:01:29;;;;;;;13.88;2.95;;;;;;;;;;4938220;29;20050;-74
2023/08/15 08:03:55;;;;;;;8.57;2.67;;;24.10;99.90;;;;;;4938160;29;20094;-75
2023/08/15 08:06:23;;;;;;;7.18;3.08;;;24.00;99.90;;;;;;4905366;29;20039;-74
2023/08/15 08:08:49;;;;;;;8.35;2.80;;;24.00;99.90;;;;;;4921598;29;20066;-75
2023/08/15 08:11:15;;;;;;;9.00;2.75;;;;;;;;;;4920732;29;20055;-75
2023/08/15 08:13:41;;;;;;;9.15;2.40;;;23.90;99.90;;;;;;4905278;29;20044;-75
2023/08/15 08:16:07;;;;;;;7.53;2.13;;;;;;;;;;4920876;29;20423;-75
2023/08/15 08:18:34;;;;;;;6.30;2.08;;;24.40;99.90;;;;;;4937505;29;20583;-75
2023/08/15 08:21:05;;;;;;;9.57;2.20;;;24.70;99.90;;;;;;4920583;29;20047;-74
2023/08/15 08:23:31;;;;;;;6.13;2.10;;;24.00;99.90;;;;;;4921101;29;20044;-74
2023/08/15 08:25:57;;;;;;;4.72;1.73;;;24.90;99.90;;;;;;4905502;29;20063;-75
2023/08/15 08:28:24;;;;;;;11.68;3.17;;;27.20;99.90;;;;;;4921219;29;20035;-75
2023/08/15 08:30:50;;;;;;;7.38;2.28;;;24.40;99.90;;;;;;4920673;29;20540;-75
2023/08/15 08:33:18;;;;;;;7.90;2.28;;;25.30;99.90;;;;;;4920584;29;20091;-75
2023/08/15 08:35:47;;;;;;;9.05;1.85;;;24.90;99.90;;;;;;4937821;29;20095;-75
2023/08/15 08:38:13;;;;;;;5.35;1.63;;;25.40;99.90;;;;;;4937747;29;20075;-75
2023/08/15 08:40:41;;;;;;;5.25;2.10;;;25.10;99.90;;;;;;4920382;29;20500;-78
2023/08/15 08:43:09;;;;;;;4.13;1.83;;;24.90;99.90;;;;;;4920616;29;20471;-75
2023/08/15 08:45:42;;;;;;;7.18;2.00;;;27.50;99.90;;;;;;4920716;29;20170;-75
2023/08/15 08:48:09;;;;;;;9.45;2.42;;;24.70;99.90;;;;;;4937568;29;20047;-75
2023/08/15 08:50:37;;;;;;;6.50;1.98;;;25.00;99.90;;;;;;4920399;29;20503;-75
2023/08/15 08:53:05;;;;;;;4.70;1.55;;;24.80;99.90;;;;;;4920293;29;20106;-74
2023/08/15 08:55:33;;;;;;;7.63;2.00;;;24.70;99.90;;;;;;4919987;29;20044;-74
2023/08/15 08:58:01;;;;;;;7.72;2.28;;;23.40;99.90;;;;;;4904097;29;20063;-75
2023/08/15 09:00:31;;;;;;;4.30;1.65;;;25.30;99.90;;;;;;4936666;29;20047;-74
2023/08/15 09:02:58;;;;;;;6.90;1.67;;;26.70;99.90;;;;;;4904254;29;20408;-74
2023/08/15 09:05:25;;;;;;;5.85;1.77;;;22.30;99.90;;;;;;4936119;29;20122;-74
2023/08/15 09:07:51;;;;;;;8.05;2.00;;;25.00;99.90;;;;;;4936886;29;20043;-75
2023/08/15 09:10:18;;;;;;;4.13;1.70;;;25.00;99.90;;;;;;4919779;29;20062;-75
2023/08/15 09:12:45;;;;;;;5.55;1.40;;;25.00;99.90;;;;;;4919534;29;20043;-74
2023/08/15 09:15:14;;;;;;;6.38;1.80;;;24.80;99.90;;;;;;4904184;29;20063;-75
2023/08/15 09:17:42;;;;;;;8.88;2.20;;;25.10;99.90;;;;;;4936933;29;20047;-74
2023/08/15 09:20:13;;;;;;;4.72;2.05;;;25.00;99.90;;;;;;4920065;29;20047;-74
2023/08/15 09:22:41;;;;;;;5.72;1.67;;;22.90;99.90;;;;;;4904318;29;20040;-74
2023/08/15 09:25:08;;;;;;;8.68;1.90;;;26.50;99.90;;;;;;4919722;29;20075;-75
2023/08/15 09:27:34;;;;;;;4.28;1.70;;;25.50;99.90;;;;;;4919538;29;20062;-75
2023/08/15 09:30:08;;;;;;;6.65;1.85;;;25.60;99.90;;;;;;4919424;29;20114;-74
2023/08/15 09:32:37;;;;;;;5.13;2.03;;;25.50;99.90;;;;;;4903711;29;20048;-74
2023/08/15 09:35:03;;;;;;;11.35;2.30;;;27.20;99.90;;;;;;4903531;29;20567;-75
2023/08/15 09:37:29;;;;;;;4.22;1.40;;;24.90;99.90;;;;;;4919348;29;20047;-75
2023/08/15 09:39:56;;;;;;;6.47;1.65;;;25.60;99.90;;;;;;4903863;29;20049;-75
2023/08/15 09:42:22;;;;;;;5.15;1.95;;;24.30;99.90;;;;;;4919441;29;20039;-75
2023/08/15 09:44:50;;;;;;;6.90;2.15;;;24.40;99.90;;;;;;4936046;29;20044;-74
2023/08/15 09:47:19;;;;;;;6.15;1.77;;;25.30;99.90;;;;;;4903543;29;20389;-75
2023/08/15 09:49:45;;;;;;;9.32;1.83;;;25.20;99.90;;;;;;4918953;29;20052;-75
2023/08/15 09:52:12;;;;;;;7.07;2.17;;;25.30;99.90;;;;;;4935857;29;20128;-75
2023/08/15 09:54:40;;;;;;;4.72;2.03;;;25.90;99.90;;;;;;4903054;29;20043;-75
2023/08/15 09:57:06;;;;;;;6.72;1.77;;;25.40;99.90;;;;;;4903282;29;20094;-75
2023/08/15 09:59:32;;;;;;;6.30;2.03;;;24.90;99.90;;;;;;4936124;29;20071;-75
2023/08/15 10:02:00;;;;;;;3.80;1.48;;;25.20;99.90;;;;;;4903217;29;20134;-74
2023/08/15 10:04:31;;;;;;;3.53;2.00;;;25.30;99.90;;;;;;4918867;29;20523;-75
2023/08/15 10:06:58;;;;;;;6.38;1.63;;;25.30;99.90;;;;;;4935561;29;20055;-75
2023/08/15 10:09:29;;;;;;;5.20;1.58;;;25.00;99.90;;;;;;4918736;29;20137;-75
2023/08/15 10:11:56;;;;;;;4.88;1.27;;;23.50;99.90;;;;;;4903202;29;20039;-75
2023/08/15 10:14:22;;;;;;;3.60;1.33;;;25.70;99.90;;;;;;4902285;29;20091;-75
2023/08/15 10:16:48;;;;;;;5.07;1.58;;;25.50;99.90;;;;;;4935671;29;20060;-75
2023/08/15 10:19:17;;;;;;;4.47;1.35;;;25.70;99.90;;;;;;4918611;29;20052;-75
2023/08/15 10:21:49;;;;;;;8.07;1.40;;;26.10;99.90;;;;;;4918319;29;20055;-75
2023/08/15 10:24:15;;;;;;;6.10;1.58;;;28.00;99.90;;;;;;4918332;29;20107;-75
2023/08/15 10:26:42;;;;;;;3.50;1.13;;;26.00;99.90;;;;;;4902968;29;20043;-76
2023/08/15 10:29:08;;;;;;;5.93;2.03;;;26.40;99.90;;;;;;4918277;29;20083;-75
2023/08/15 10:31:38;;;;;;;3.97;1.40;;;26.60;99.90;;;;;;4918202;29;20270;-75
2023/08/15 10:34:07;;;;;;;4.65;1.42;;;26.00;99.90;;;;;;4902117;29;20048;-75
2023/08/15 10:36:33;;;;;;;6.03;1.52;;;26.20;99.90;;;;;;4935435;29;20035;-75
2023/08/15 10:39:09;;;;;;;8.55;1.70;;;25.90;99.90;;;;;;4918232;29;20044;-75
2023/08/15 10:41:36;;;;;;;5.97;1.48;;;25.90;99.90;;;;;;4902616;29;20051;-75
2023/08/15 10:44:05;;;;;;;4.88;1.30;;;26.00;99.90;;;;;;4902223;29;20046;-75
2023/08/15 10:46:34;;;;;;;5.90;1.15;;;26.00;99.90;;;;;;4918566;29;20036;-75
2023/08/15 10:49:01;;;;;;;3.85;1.45;;;23.70;99.90;;;;;;4902847;29;20046;-75
2023/08/15 10:51:39;;;;;;;6.65;1.88;;;26.20;99.90;;;;;;4902179;29;20056;-75
2023/08/15 10:54:16;;;;;;;4.72;1.70;;;26.60;99.90;;;;;;4902603;29;20468;-75
2023/08/15 10:56:43;;;;;;;3.33;1.10;;;26.00;99.90;;;;;;4918117;29;20040;-75
2023/08/15 10:59:11;;;;;;;5.75;1.73;;;25.90;99.90;;;;;;4902073;29;20071;-75
2023/08/15 11:01:39;;;;;;;7.22;1.63;;;23.40;99.90;;;;;;4935093;29;20415;-76
2023/08/15 11:04:12;;;;;;;6.65;2.03;;;26.40;99.90;;;;;;4902753;29;20411;-76
2023/08/15 11:06:47;;;;;;;3.72;1.45;;;26.00;99.90;;;;;;4902221;29;20043;-75
2023/08/15 11:09:13;;;;;;;3.28;1.38;;;26.20;99.90;;;;;;4917958;29;20058;-75
2023/08/15 11:11:40;;;;;;;7.78;1.85;;;26.00;99.90;;;;;;4902173;29;20048;-75
2023/08/15 11:14:18;;;;;;;6.05;1.20;;;25.90;99.90;;;;;;4902057;29;20056;-75
2023/08/15 11:16:47;;;;;;;5.65;1.27;;;26.00;99.90;;;;;;4934981;29;20496;-75
2023/08/15 11:19:20;;;;;;;4.38;1.58;;;26.20;99.90;;;;;;4917974;29;20050;-75
2023/08/15 11:21:50;;;;;;;4.15;1.30;;;25.90;99.90;;;;;;4935011;29;20040;-75
2023/08/15 11:24:16;;;;;;;4.93;1.10;;;26.00;99.90;;;;;;4901975;29;20047;-75
2023/08/15 11:26:44;;;;;;;3.65;1.15;;;26.60;99.90;;;;;;4921186;29;20146;-75
2023/08/15 11:29:12;;;;;;;2.72;1.10;;;26.00;99.90;;;;;;4938612;29;20032;-75
2023/08/15 11:31:38;;;;;;;3.38;1.15;;;25.80;99.90;;;;;;4921848;29;20101;-75
2023/08/15 11:34:05;;;;;;;3.58;1.25;;;23.70;99.90;;;;;;4921509;29;20535;-76
2023/08/15 11:36:31;;;;;;;5.05;1.20;;;26.20;99.90;;;;;;4905788;29;20048;-75
2023/08/15 11:39:00;;;;;;;4.88;1.23;;;26.30;99.90;;;;;;4921695;29;20043;-75
2023/08/15 11:41:28;;;;;;;2.22;1.10;;;26.70;99.90;;;;;;4921215;29;20097;-75
2023/08/15 11:43:54;;;;;;;4.50;1.25;;;27.30;99.90;;;;;;4921488;29;20043;-76
2023/08/15 11:46:22;;;;;;;3.65;1.45;;;26.50;99.90;;;;;;4921480;29;20051;-75
2023/08/15 11:48:50;;;;;;;3.58;1.52;;;26.50;99.90;;;;;;4921700;29;20075;-76
2023/08/15 11:51:20;;;;;;;4.22;1.30;;;25.60;99.90;;;;;;4937982;29;20044;-76
2023/08/15 11:53:53;;;;;;;5.03;1.88;;;26.20;99.90;;;;;;4938124;29;20047;-75
2023/08/15 11:56:20;;;;;;;5.63;1.20;;;25.70;99.90;;;;;;4921430;29;20063;-75
2023/08/15 11:58:46;;;;;;;6.03;1.60;;;26.10;99.90;;;;;;4907548;29;20040;-75
2023/08/15 12:01:12;;;;;;;7.00;1.75;;;25.40;99.90;;;;;;4938046;29;20062;-75
2023/08/15 12:03:38;;;;;;;6.28;1.70;;;25.80;99.90;;;;;;4921333;29;20064;-75
2023/08/15 12:06:18;;;;;;;5.88;1.55;;;24.30;99.90;;;;;;4905262;29;20047;-75
2023/08/15 12:08:44;;;;;;;4.38;1.70;;;25.70;99.90;;;;;;4938261;29;20048;-75
2023/08/15 12:11:13;;;;;;;10.07;2.72;;;25.60;99.90;;;;;;4937936;29;20047;-75
2023/08/15 12:13:41;;;;;;;6.95;1.80;;;24.00;99.90;;;;;;4937910;29;20036;-75
2023/08/15 12:16:11;;;;;;;5.68;1.80;;;23.40;99.90;;;;;;4904790;29;20051;-76
2023/08/15 12:18:40;;;;;;;5.88;2.00;;;25.50;99.90;;;;;;4920365;29;20071;-75
2023/08/15 12:21:07;;;;;;;4.78;1.63;;;25.50;99.90;;;;;;4920653;29;20043;-76
2023/08/15 12:23:33;;;;;;;5.45;2.15;;;26.10;99.90;;;;;;4920827;29;20035;-75
2023/08/15 12:25:59;;;;;;;4.82;1.95;;;25.00;99.90;;;;;;4920802;29;20061;-75
2023/08/15 12:28:25;;;;;;;7.25;1.58;;;25.00;99.90;;;;;;4921092;29;20057;-76
2023/08/15 12:30:50;;;;;;;6.93;2.13;;;24.30;99.90;;;;;;4942860;23;20048;-68
2023/08/15 12:33:16;;;;;;;7.82;2.38;;;25.90;99.90;;;;;;4936604;29;20496;-68
2023/08/15 12:35:42;;;;;;;6.45;2.03;;;25.50;99.90;;;;;;4919405;29;20514;-68
2023/08/15 12:38:08;;;;;;;6.72;2.28;;;26.10;99.90;;;;;;4919817;29;20047;-68
2023/08/15 12:40:33;;;;;;;6.28;2.33;;;26.10;99.90;;;;;;4919620;29;20407;-68
2023/08/15 12:42:59;;;;;;;6.93;2.63;;;25.80;99.90;;;;;;4937035;29;20074;-68
2023/08/15 12:45:25;;;;;;;5.57;2.50;;;26.00;99.90;;;;;;4919715;29;20040;-68